createdAt,value
2024-05-09T00:01:43.946Z,97045.47
2024-05-09T00:04:13.473Z,97048.22
2024-05-09T00:06:45.455Z,97047.06
2024-05-09T00:09:14.865Z,97049.28
2024-05-09T00:11:44.230Z,97038.84
2024-05-09T00:14:13.628Z,97044.09
2024-05-09T00:16:43.067Z,97042.06
2024-05-09T00:19:12.639Z,97043.75
2024-05-09T00:21:46.598Z,97046.81
2024-05-09T00:24:15.948Z,97048.78
2024-05-09T00:26:45.292Z,97040.19
2024-05-09T00:29:14.672Z,97038.94
2024-05-09T00:31:44.129Z,97034.75
2024-05-09T00:34:13.611Z,97033.91
2024-05-09T00:36:43.025Z,97042.41
2024-05-09T00:39:14.973Z,97045.13
2024-05-09T00:41:44.416Z,97030.56
2024-05-09T00:44:13.886Z,97036.72
2024-05-09T00:46:44.287Z,97033.31
2024-05-09T00:49:15.230Z,97021.88
2024-05-09T00:51:45.095Z,97017.41
2024-05-09T00:54:19.845Z,97027.59
2024-05-09T00:56:50.542Z,97024.94
2024-05-09T00:59:20.243Z,97023.63
2024-05-09T01:01:50.106Z,97017.75
2024-05-09T01:04:19.865Z,97024.06
2024-05-09T01:06:50.462Z,97021.25
2024-05-09T01:09:22.418Z,97019.69
2024-05-09T01:11:51.830Z,97011.41
2024-05-09T01:14:21.481Z,97022.25
2024-05-09T01:16:50.984Z,97017.25
2024-05-09T01:19:29.276Z,97018.00
2024-05-09T01:21:58.833Z,97017.22
2024-05-09T01:24:30.723Z,97008.50
2024-05-09T01:27:00.091Z,97019.91
2024-05-09T01:29:29.537Z,97028.06
2024-05-09T01:31:59.869Z,97021.47
2024-05-09T01:34:29.326Z,97013.41
2024-05-09T01:36:58.621Z,97019.72
2024-05-09T01:39:30.583Z,97029.06
2024-05-09T01:41:59.899Z,97023.63
2024-05-09T01:44:29.237Z,97024.88
2024-05-09T01:46:58.741Z,97035.59
2024-05-09T01:49:28.271Z,97033.31
2024-05-09T01:51:57.609Z,97030.19
2024-05-09T01:54:26.937Z,97032.47
2024-05-09T01:56:58.851Z,97034.06
2024-05-09T01:59:28.343Z,97034.75
2024-05-09T02:01:58.140Z,97033.34
2024-05-09T02:04:27.758Z,97040.50
2024-05-09T02:06:57.170Z,97044.50
2024-05-09T02:09:26.682Z,97043.81
2024-05-09T02:11:59.060Z,97049.34
2024-05-09T02:14:28.498Z,97053.22
2024-05-09T02:16:57.913Z,97040.84
2024-05-09T02:19:27.380Z,97040.25
2024-05-09T02:21:56.830Z,97037.81
2024-05-09T02:24:26.128Z,97042.66
2024-05-09T02:26:55.443Z,97037.31
2024-05-09T02:29:27.427Z,97037.88
2024-05-09T02:31:56.900Z,97050.72
2024-05-09T02:34:26.390Z,97042.69
2024-05-09T02:36:56.259Z,97042.91
2024-05-09T02:39:23.071Z,97037.38
2024-05-09T02:41:52.431Z,97043.94
2024-05-09T02:44:19.163Z,97042.53
2024-05-09T02:46:51.214Z,97046.56
2024-05-09T02:49:18.051Z,97038.56
2024-05-09T02:51:47.439Z,97044.66
2024-05-09T02:54:14.174Z,97038.88
2024-05-09T02:56:43.491Z,97038.44
2024-05-09T02:59:10.260Z,97048.75
2024-05-09T03:01:39.654Z,97039.91
2024-05-09T03:04:09.354Z,97038.13
2024-05-09T03:06:42.790Z,97044.56
2024-05-09T03:09:09.917Z,97041.56
2024-05-09T03:11:40.609Z,97039.88
2024-05-09T03:14:07.500Z,97055.75
2024-05-09T03:16:40.399Z,97046.28
2024-05-09T03:19:10.371Z,97050.09
2024-05-09T03:21:41.356Z,97054.28
2024-05-09T03:24:08.227Z,97049.09
2024-05-09T03:26:37.571Z,97051.94
2024-05-09T03:29:04.633Z,97044.75
2024-05-09T03:31:34.141Z,97043.94
2024-05-09T03:34:01.224Z,97041.25
2024-05-09T03:36:33.279Z,97035.59
2024-05-09T03:39:02.612Z,97046.09
2024-05-09T03:41:32.076Z,97035.94
2024-05-09T03:44:01.526Z,97049.06
2024-05-09T03:46:28.298Z,97043.34
2024-05-09T03:48:57.797Z,97051.28
2024-05-09T03:51:24.801Z,97045.72
2024-05-09T03:53:56.799Z,97049.06
2024-05-09T03:56:23.652Z,97043.53
2024-05-09T03:58:53.023Z,97055.44
2024-05-09T04:01:19.835Z,97052.66
2024-05-09T04:03:49.375Z,97054.69
2024-05-09T04:06:20.395Z,97049.59
2024-05-09T04:08:49.726Z,97056.34
2024-05-09T04:11:19.250Z,97048.19
2024-05-09T04:13:48.650Z,97057.75
2024-05-09T04:16:15.531Z,97059.41
2024-05-09T04:18:45.024Z,97061.03
2024-05-09T04:21:11.852Z,97057.00
2024-05-09T04:23:41.771Z,97052.28
2024-05-09T04:26:08.843Z,97052.94
2024-05-09T04:28:40.778Z,97054.78
2024-05-09T04:31:07.515Z,97050.78
2024-05-09T04:33:36.987Z,97053.59
2024-05-09T04:36:04.275Z,97057.25
2024-05-09T04:38:33.794Z,97058.56
2024-05-09T04:41:00.760Z,97051.03
2024-05-09T04:43:30.143Z,97062.22
2024-05-09T04:46:01.431Z,97064.81
2024-05-09T04:48:31.649Z,97064.00
2024-05-09T04:51:02.137Z,97067.69
2024-05-09T04:53:31.591Z,97063.75
2024-05-09T04:55:58.419Z,97064.50
2024-05-09T04:58:27.800Z,97064.50
2024-05-09T05:00:54.567Z,97060.16
2024-05-09T05:03:26.674Z,97061.91
2024-05-09T05:05:53.605Z,97063.34
2024-05-09T05:08:23.015Z,97057.81
2024-05-09T05:10:49.881Z,97064.25
2024-05-09T05:13:21.233Z,97059.44
2024-05-09T05:15:49.874Z,97057.19
2024-05-09T05:18:19.675Z,97053.66
2024-05-09T05:20:49.507Z,97063.09
2024-05-09T05:23:22.312Z,97063.75
2024-05-09T05:25:50.435Z,97068.44
2024-05-09T05:28:20.323Z,97065.91
2024-05-09T05:30:47.352Z,97063.09
2024-05-09T05:33:18.730Z,97070.25
2024-05-09T05:35:46.123Z,97064.75
2024-05-09T05:38:18.259Z,97070.25
2024-05-09T05:40:45.107Z,97072.94
2024-05-09T05:43:19.409Z,97065.28
2024-05-09T05:45:46.326Z,97064.22
2024-05-09T05:48:17.281Z,97064.88
2024-05-09T05:50:44.877Z,97075.19
2024-05-09T05:53:14.464Z,97071.72
2024-05-09T05:55:43.923Z,97064.19
2024-05-09T05:58:14.693Z,97075.47
2024-05-09T06:00:42.605Z,97067.97
2024-05-09T06:03:14.349Z,97074.25
2024-05-09T06:05:43.592Z,97078.38
2024-05-09T06:08:13.487Z,97073.41
2024-05-09T06:10:41.431Z,97076.50
2024-05-09T06:13:15.742Z,97069.28
2024-05-09T06:15:43.448Z,97066.31
2024-05-09T06:18:14.166Z,97069.50
2024-05-09T06:20:42.784Z,97073.50
2024-05-09T06:23:13.657Z,97068.50
2024-05-09T06:25:41.811Z,97074.56
2024-05-09T06:28:13.970Z,97078.59
2024-05-09T06:30:42.569Z,97065.72
2024-05-09T06:33:15.695Z,97070.53
2024-05-09T06:35:44.186Z,97071.44
2024-05-09T06:38:13.805Z,97070.53
2024-05-09T06:40:42.650Z,97062.59
2024-05-09T06:43:18.863Z,97062.59
2024-05-09T06:45:47.677Z,97059.06
2024-05-09T06:48:17.883Z,97052.84
2024-05-09T06:50:45.102Z,97049.88
2024-05-09T06:53:17.055Z,97058.56
2024-05-09T06:55:43.966Z,97061.03
2024-05-09T06:58:15.895Z,97065.38
2024-05-09T07:00:42.770Z,97062.69
2024-05-09T07:03:14.839Z,97068.69
2024-05-09T07:05:44.024Z,97061.00
2024-05-09T07:08:14.278Z,97065.44
2024-05-09T07:10:41.439Z,97056.69
2024-05-09T07:13:11.950Z,97062.63
2024-05-09T07:15:41.977Z,97056.94
2024-05-09T07:18:13.953Z,97063.53
2024-05-09T07:20:41.613Z,97054.84
2024-05-09T07:23:12.082Z,97063.13
2024-05-09T07:25:39.878Z,97051.41
2024-05-09T07:28:12.985Z,97046.97
2024-05-09T07:30:42.728Z,97056.91
2024-05-09T07:33:12.412Z,97056.91
2024-05-09T07:35:39.383Z,97061.44
2024-05-09T07:38:08.947Z,97055.63
2024-05-09T07:40:37.112Z,97057.50
2024-05-09T07:43:06.890Z,97050.66
2024-05-09T07:49:44.648Z,97057.84
2024-05-09T07:53:40.310Z,97061.69
2024-05-09T07:56:12.171Z,97058.34
2024-05-09T07:58:41.922Z,97046.72
2024-05-09T08:01:08.895Z,97044.75
2024-05-09T08:03:41.151Z,97046.16
2024-05-09T08:06:08.063Z,97041.91
2024-05-09T08:08:37.410Z,97037.47
2024-05-09T08:11:06.381Z,97037.94
2024-05-09T08:13:35.794Z,97034.38
2024-05-09T08:16:02.714Z,97037.38
2024-05-09T08:18:32.350Z,97038.19
2024-05-09T08:21:01.844Z,97054.34
2024-05-09T08:23:31.360Z,97043.16
2024-05-09T08:25:58.177Z,97033.16
2024-05-09T08:28:27.562Z,97044.41
2024-05-09T08:30:54.431Z,97035.69
2024-05-09T08:33:24.023Z,97033.16
2024-05-09T08:35:50.837Z,97033.34
2024-05-09T08:38:22.839Z,97041.09
2024-05-09T08:40:50.582Z,97032.53
2024-05-09T08:43:22.396Z,97042.34
2024-05-09T08:45:50.037Z,97034.84
2024-05-09T08:48:22.200Z,97041.84
2024-05-09T08:50:51.715Z,97043.94
2024-05-09T08:53:23.746Z,97045.19
2024-05-09T08:55:52.888Z,97041.47
2024-05-09T08:58:22.281Z,97050.06
2024-05-09T09:00:49.747Z,97038.69
2024-05-09T09:03:21.088Z,97045.63
2024-05-09T09:05:56.713Z,97044.91
2024-05-09T09:08:29.010Z,97048.84
2024-05-09T09:10:58.302Z,97048.63
2024-05-09T09:13:27.649Z,97039.34
2024-05-09T09:15:58.474Z,97050.78
2024-05-09T09:18:30.072Z,97039.81
2024-05-09T09:20:57.186Z,97046.75
2024-05-09T09:23:30.563Z,97030.41
2024-05-09T09:26:01.531Z,97039.22
2024-05-09T09:28:28.461Z,97036.50
2024-05-09T09:31:04.134Z,97040.88
2024-05-09T09:33:31.715Z,97040.22
2024-05-09T09:36:01.307Z,97048.19
2024-05-09T09:38:31.413Z,97051.06
2024-05-09T09:41:02.560Z,97053.13
2024-05-09T09:43:31.350Z,97048.06
2024-05-09T09:46:02.784Z,97046.53
2024-05-09T09:48:31.541Z,97046.69
2024-05-09T09:51:02.096Z,97032.81
2024-05-09T09:53:33.447Z,97036.84
2024-05-09T09:56:04.388Z,97039.97
2024-05-09T09:58:34.813Z,97037.16
2024-05-09T10:01:04.245Z,97034.66
2024-05-09T10:03:31.826Z,97033.41
2024-05-09T10:06:01.616Z,97034.56
2024-05-09T10:08:31.518Z,97032.41
2024-05-09T10:11:01.014Z,97042.91
2024-05-09T10:13:33.871Z,97035.28
2024-05-09T10:16:10.412Z,97026.50
2024-05-09T10:18:38.339Z,97035.69
2024-05-09T10:21:18.123Z,97026.69
2024-05-09T10:23:57.518Z,97019.72
2024-05-09T10:26:33.138Z,97017.03
2024-05-09T10:29:03.486Z,97009.63
2024-05-09T10:31:30.454Z,97009.94
2024-05-09T10:34:00.006Z,97011.34
2024-05-09T10:36:27.193Z,97013.63
2024-05-09T10:38:59.142Z,97009.97
2024-05-09T10:41:25.993Z,97004.53
2024-05-09T10:43:55.345Z,97008.09
2024-05-09T10:46:22.144Z,97008.66
2024-05-09T10:48:52.446Z,97011.16
2024-05-09T10:51:19.380Z,97006.78
2024-05-09T10:53:52.391Z,97011.06
2024-05-09T10:56:21.739Z,97008.06
2024-05-09T10:58:54.679Z,96998.88
2024-05-09T11:01:21.522Z,96992.06
2024-05-09T11:03:51.646Z,96988.56
2024-05-09T11:06:18.508Z,96989.25
2024-05-09T11:08:49.522Z,96986.09
2024-05-09T11:11:16.774Z,96983.09
2024-05-09T11:13:48.723Z,96983.09
2024-05-09T11:16:20.776Z,96988.72
2024-05-09T11:18:58.971Z,96983.47
2024-05-09T11:21:26.722Z,96979.50
2024-05-09T11:23:56.270Z,96989.16
2024-05-09T11:26:25.130Z,96989.09
2024-05-09T11:28:57.085Z,96978.19
2024-05-09T11:31:24.157Z,96977.78
2024-05-09T11:33:57.025Z,96980.47
2024-05-09T11:36:23.855Z,96979.66
2024-05-09T11:38:53.172Z,96979.44
2024-05-09T11:41:20.066Z,96978.47
2024-05-09T11:43:49.404Z,96971.31
2024-05-09T11:46:18.999Z,96972.09
2024-05-09T11:48:48.511Z,96965.72
2024-05-09T11:51:15.408Z,96967.16
2024-05-09T11:53:44.756Z,96970.13
2024-05-09T11:56:12.014Z,96966.00
2024-05-09T11:58:41.579Z,96964.56
2024-05-09T12:01:08.398Z,96956.53
2024-05-09T12:03:40.533Z,96960.56
2024-05-09T12:06:07.692Z,96965.75
2024-05-09T12:08:37.143Z,96958.28
2024-05-09T12:11:04.373Z,96952.09
2024-05-09T12:13:33.895Z,96960.84
2024-05-09T12:16:01.165Z,96959.16
2024-05-09T12:18:31.428Z,96953.25
2024-05-09T12:21:01.024Z,96943.28
2024-05-09T12:23:30.597Z,96932.84
2024-05-09T12:25:57.934Z,96932.47
2024-05-09T12:28:27.338Z,96933.28
2024-05-09T12:30:54.160Z,96935.19
2024-05-09T12:33:23.621Z,96928.84
2024-05-09T12:35:51.162Z,96918.16
2024-05-09T12:38:23.359Z,96924.66
2024-05-09T12:40:50.313Z,96927.66
2024-05-09T12:43:20.144Z,96924.69
2024-05-09T12:45:47.115Z,96930.22
2024-05-09T12:48:16.865Z,96922.91
2024-05-09T12:50:43.947Z,96918.22
2024-05-09T12:53:13.377Z,96919.94
2024-05-09T12:55:48.956Z,96922.44
2024-05-09T12:58:25.979Z,96917.47
2024-05-09T13:00:53.118Z,96907.66
2024-05-09T13:03:22.944Z,96912.72
2024-05-09T13:05:50.309Z,96906.88
2024-05-09T13:08:20.047Z,96901.50
2024-05-09T13:10:50.351Z,96903.34
2024-05-09T13:13:20.162Z,96897.00
2024-05-09T13:15:47.092Z,96887.28
2024-05-09T13:18:16.697Z,96897.53
2024-05-09T13:20:44.292Z,96899.31
2024-05-09T13:23:13.610Z,96887.63
2024-05-09T13:25:40.551Z,96886.22
2024-05-09T13:28:12.635Z,96886.44
2024-05-09T13:30:41.788Z,96894.34
2024-05-09T13:33:12.780Z,96898.13
2024-05-09T13:35:45.480Z,96889.84
2024-05-09T13:38:19.453Z,96881.72
2024-05-09T13:40:46.700Z,96883.38
2024-05-09T13:43:19.283Z,96880.66
2024-05-09T13:45:46.436Z,96874.72
2024-05-09T13:48:16.015Z,96869.22
2024-05-09T13:50:43.052Z,96867.44
2024-05-09T13:53:12.371Z,96856.88
2024-05-09T13:55:39.652Z,96855.28
2024-05-09T13:58:09.842Z,96853.25
2024-05-09T14:00:46.230Z,96853.91
2024-05-09T14:03:20.106Z,96848.38
2024-05-09T14:05:49.404Z,96853.00
2024-05-09T14:08:19.834Z,96846.59
2024-05-09T14:10:47.412Z,96854.53
2024-05-09T14:13:17.537Z,96851.59
2024-05-09T14:15:47.185Z,96851.19
2024-05-09T14:18:16.825Z,96849.66
2024-05-09T14:20:43.683Z,96854.81
2024-05-09T14:23:13.076Z,96849.09
2024-05-09T14:25:42.848Z,96830.97
2024-05-09T14:28:13.802Z,96830.00
2024-05-09T14:30:40.671Z,96830.22
2024-05-09T14:33:16.253Z,96834.00
2024-05-09T14:35:43.102Z,96830.38
2024-05-09T14:38:12.470Z,96831.50
2024-05-09T14:40:43.021Z,96826.75
2024-05-09T14:43:14.629Z,96826.91
2024-05-09T14:45:42.044Z,96824.34
2024-05-09T14:48:14.761Z,96823.34
2024-05-09T14:50:42.304Z,96815.09
2024-05-09T14:53:13.765Z,96812.97
2024-05-09T14:55:42.940Z,96812.69
2024-05-09T14:58:13.975Z,96812.50
2024-05-09T15:00:46.144Z,96813.41
2024-05-09T15:03:22.508Z,96806.97
2024-05-09T15:05:49.972Z,96805.41
2024-05-09T15:08:20.081Z,96808.41
2024-05-09T15:10:49.610Z,96797.50
2024-05-09T15:13:19.979Z,96795.44
2024-05-09T15:15:47.077Z,96796.84
2024-05-09T15:18:16.977Z,96800.56
2024-05-09T15:20:46.747Z,96796.06
2024-05-09T15:23:16.294Z,96800.41
2024-05-09T15:25:44.613Z,96795.59
2024-05-09T15:28:14.109Z,96789.16
2024-05-09T15:30:44.003Z,96787.50
2024-05-09T15:33:15.579Z,96777.53
2024-05-09T15:35:42.596Z,96788.84
2024-05-09T15:38:15.651Z,96781.88
2024-05-09T15:40:42.424Z,96789.84
2024-05-09T15:43:12.732Z,96783.84
2024-05-09T15:45:40.622Z,96781.94
2024-05-09T15:48:11.893Z,96778.22
2024-05-09T15:50:41.376Z,96778.69
2024-05-09T15:53:15.170Z,96780.09
2024-05-09T15:55:42.611Z,96781.31
2024-05-09T15:58:12.581Z,96780.84
2024-05-09T16:00:42.577Z,96782.63
2024-05-09T16:03:15.000Z,96770.06
2024-05-09T16:05:44.161Z,96766.25
2024-05-09T16:08:17.196Z,96763.28
2024-05-09T16:10:46.044Z,96765.97
2024-05-09T16:13:17.201Z,96768.56
2024-05-09T16:15:44.547Z,96772.13
2024-05-09T16:18:14.459Z,96766.28
2024-05-09T16:20:43.166Z,96765.22
2024-05-09T16:23:16.694Z,96772.09
2024-05-09T16:25:47.821Z,96758.16
2024-05-09T16:28:17.705Z,96761.59
2024-05-09T16:30:44.662Z,96760.28
2024-05-09T16:33:16.804Z,96760.34
2024-05-09T16:35:43.576Z,96754.50
2024-05-09T16:38:13.361Z,96751.41
2024-05-09T16:40:42.719Z,96750.28
2024-05-09T16:43:12.940Z,96752.13
2024-05-09T16:45:41.266Z,96747.50
2024-05-09T16:48:11.585Z,96752.38
2024-05-09T16:50:38.932Z,96754.13
2024-05-09T16:53:08.816Z,96747.88
2024-05-09T16:55:36.308Z,96751.25
2024-05-09T16:58:09.271Z,96747.91
2024-05-09T17:00:41.312Z,96747.13
2024-05-09T17:03:15.549Z,96752.16
2024-05-09T17:05:43.551Z,96755.84
2024-05-09T17:08:13.533Z,96750.63
2024-05-09T17:10:40.372Z,96753.38
2024-05-09T17:13:12.523Z,96758.19
2024-05-09T17:15:41.851Z,96753.72
2024-05-09T17:18:11.445Z,96753.69
2024-05-09T17:20:38.322Z,96745.41
2024-05-09T17:23:12.909Z,96742.13
2024-05-09T17:25:40.617Z,96750.34
2024-05-09T17:28:13.010Z,96745.06
2024-05-09T17:30:41.802Z,96745.94
2024-05-09T17:33:13.120Z,96752.56
2024-05-09T17:35:40.557Z,96750.66
2024-05-09T17:38:10.312Z,96752.47
2024-05-09T17:40:38.581Z,96748.53
2024-05-09T17:43:10.417Z,96746.28
2024-05-09T17:45:41.368Z,96760.75
2024-05-09T17:48:12.471Z,96757.19
2024-05-09T17:50:42.415Z,96757.41
2024-05-09T17:53:10.315Z,96760.16
2024-05-09T17:55:40.123Z,96750.78
2024-05-09T17:58:07.884Z,96757.88
2024-05-09T18:00:40.552Z,96752.91
2024-05-09T18:03:12.879Z,96752.63
2024-05-09T18:05:44.506Z,96757.44
2024-05-09T18:08:12.036Z,96753.56
2024-05-09T18:10:41.914Z,96754.66
2024-05-09T18:13:12.357Z,96755.25
2024-05-09T18:15:39.817Z,96746.78
2024-05-09T18:18:10.720Z,96750.63
2024-05-09T18:20:44.422Z,96751.00
2024-05-09T18:23:17.750Z,96752.66
2024-05-09T18:25:46.067Z,96754.31
2024-05-09T18:28:16.707Z,96751.38
2024-05-09T18:30:44.134Z,96764.03
2024-05-09T18:33:13.965Z,96766.41
2024-05-09T18:35:44.126Z,96760.91
2024-05-09T18:38:14.039Z,96763.63
2024-05-09T18:40:43.552Z,96762.34
2024-05-09T18:43:14.395Z,96767.22
2024-05-09T18:45:41.207Z,96770.88
2024-05-09T18:48:11.461Z,96773.03
2024-05-09T18:50:40.825Z,96770.44
2024-05-09T18:53:14.028Z,96772.81
2024-05-09T18:55:41.057Z,96782.84
2024-05-09T18:58:10.516Z,96784.06
2024-05-09T19:00:40.067Z,96783.38
2024-05-09T19:03:14.046Z,96797.75
2024-05-09T19:05:43.066Z,96801.97
2024-05-09T19:08:16.462Z,96798.75
2024-05-09T19:10:45.305Z,96796.47
2024-05-09T19:13:15.565Z,96803.41
2024-05-09T19:15:43.546Z,96811.03
2024-05-09T19:18:14.842Z,96806.13
2024-05-09T19:20:42.767Z,96808.19
2024-05-09T19:23:12.929Z,96809.53
2024-05-09T19:25:42.405Z,96813.22
2024-05-09T19:28:11.888Z,96820.31
2024-05-09T19:30:41.812Z,96823.34
2024-05-09T19:33:13.735Z,96821.84
2024-05-09T19:35:41.312Z,96822.72
2024-05-09T19:38:10.869Z,96827.38
2024-05-09T19:40:37.855Z,96835.06
2024-05-09T19:43:11.071Z,96830.41
2024-05-09T19:45:38.084Z,96829.41
2024-05-09T19:48:08.419Z,96834.56
2024-05-09T19:50:41.665Z,96827.56
2024-05-09T19:53:14.111Z,96831.75
2024-05-09T19:55:41.748Z,96840.88
2024-05-09T19:58:14.086Z,96835.50
2024-05-09T20:00:43.063Z,96837.66
2024-05-09T20:03:14.253Z,96847.84
2024-05-09T20:05:42.738Z,96836.03
2024-05-09T20:08:12.251Z,96844.16
2024-05-09T20:10:39.120Z,96844.28
2024-05-09T20:13:09.029Z,96835.59
2024-05-09T20:15:38.986Z,96841.59
2024-05-09T20:18:08.884Z,96844.56
2024-05-09T20:20:39.896Z,96847.22
2024-05-09T20:23:12.456Z,96839.38
2024-05-09T20:25:39.593Z,96836.16
2024-05-09T20:28:09.795Z,96842.09
2024-05-09T20:30:39.387Z,96840.06
2024-05-09T20:33:09.805Z,96840.69
2024-05-09T20:35:37.149Z,96839.28
2024-05-09T20:38:06.953Z,96834.53
2024-05-09T20:40:37.274Z,96836.94
2024-05-09T20:43:09.159Z,96835.41
2024-05-09T20:45:36.629Z,96840.41
2024-05-09T20:48:10.341Z,96843.41
2024-05-09T20:50:40.709Z,96849.03
2024-05-09T20:53:12.489Z,96838.03
2024-05-09T20:55:40.372Z,96837.84
2024-05-09T20:58:10.236Z,96838.44
2024-05-09T21:00:40.878Z,96836.16
2024-05-09T21:03:17.541Z,96837.75
2024-05-09T21:05:45.357Z,96839.41
2024-05-09T21:08:14.969Z,96840.25
2024-05-09T21:10:41.988Z,96832.06
2024-05-09T21:13:11.552Z,96832.22
2024-05-09T21:15:38.505Z,96828.88
2024-05-09T21:18:08.264Z,96824.16
2024-05-09T21:20:37.803Z,96827.72
2024-05-09T21:23:07.665Z,96835.47
2024-05-09T21:25:34.647Z,96833.50
2024-05-09T21:28:04.267Z,96829.72
2024-05-09T21:30:38.840Z,96829.84
2024-05-09T21:33:14.069Z,96831.00
2024-05-09T21:35:44.992Z,96829.69
2024-05-09T21:38:15.959Z,96831.31
2024-05-09T21:40:43.528Z,96831.00
2024-05-09T21:43:13.108Z,96829.09
2024-05-09T21:45:40.000Z,96821.56
2024-05-09T21:48:10.550Z,96828.19
2024-05-09T21:50:41.023Z,96826.22
2024-05-09T21:53:14.475Z,96824.06
2024-05-09T21:55:41.506Z,96824.69
2024-05-09T21:58:11.050Z,96824.22
2024-05-09T22:00:39.513Z,96821.13
2024-05-09T22:03:10.731Z,96829.69
2024-05-09T22:05:39.136Z,96819.97
2024-05-09T22:08:09.800Z,96815.03
2024-05-09T22:10:39.233Z,96819.25
2024-05-09T22:13:09.272Z,96814.09
2024-05-09T22:15:38.503Z,96815.22
2024-05-09T22:18:10.348Z,96812.19
2024-05-09T22:20:44.488Z,96813.84
2024-05-09T22:23:15.190Z,96817.50
2024-05-09T22:25:44.692Z,96818.22
2024-05-09T22:28:17.190Z,96821.72
2024-05-09T22:30:46.087Z,96810.41
2024-05-09T22:33:16.148Z,96806.28
2024-05-09T22:35:43.150Z,96816.06
2024-05-09T22:38:31.765Z,96814.59
2024-05-09T22:41:01.299Z,96824.06
2024-05-09T22:43:30.747Z,96831.88
2024-05-09T22:45:57.636Z,96844.28
2024-05-09T22:48:27.338Z,96846.09
2024-05-09T22:50:54.562Z,96844.38
2024-05-09T22:53:24.353Z,96839.78
2024-05-09T22:55:51.147Z,96841.16
2024-05-09T22:58:23.614Z,96836.66
2024-05-09T23:00:50.754Z,96829.53
2024-05-09T23:03:21.933Z,96831.19
2024-05-09T23:05:49.503Z,96838.59
2024-05-09T23:08:18.951Z,96832.41
2024-05-09T23:10:45.871Z,96829.22
2024-05-09T23:13:15.529Z,96833.97
2024-05-09T23:15:45.009Z,96834.56
2024-05-09T23:18:14.399Z,96829.84
2024-05-09T23:20:41.247Z,96834.19
2024-05-09T23:23:12.087Z,96830.19
2024-05-09T23:25:40.979Z,96822.66
2024-05-09T23:28:10.654Z,96824.50
2024-05-09T23:30:40.164Z,96828.94
2024-05-09T23:33:15.360Z,96826.72
2024-05-09T23:35:43.545Z,96823.53
2024-05-09T23:38:13.462Z,96819.50
2024-05-09T23:40:41.901Z,96816.16
2024-05-09T23:43:13.122Z,96814.91
2024-05-09T23:45:40.576Z,96807.09
2024-05-09T23:48:13.364Z,96818.16
2024-05-09T23:50:41.036Z,96809.78
2024-05-09T23:53:11.287Z,96809.22
2024-05-09T23:55:38.615Z,96804.75
2024-05-09T23:58:09.236Z,96801.94
